createdAt,value
2022-12-15T00:00:18.062Z,-0.60
2022-12-15T00:03:03.601Z,-0.60
2022-12-15T00:05:50.212Z,-0.70
2022-12-15T00:08:35.859Z,-0.60
2022-12-15T00:11:21.979Z,-0.70
2022-12-15T00:14:07.747Z,-1.00
2022-12-15T00:16:53.646Z,-1.20
2022-12-15T00:19:39.229Z,-0.90
2022-12-15T00:22:25.179Z,-0.90
2022-12-15T00:25:10.420Z,-0.90
2022-12-15T00:27:55.929Z,-0.90
2022-12-15T00:30:41.375Z,-0.80
2022-12-15T00:33:30.714Z,-1.00
2022-12-15T00:36:19.146Z,-1.20
2022-12-15T00:38:46.536Z,-1.10
2022-12-15T00:41:15.924Z,-0.90
2022-12-15T00:43:43.139Z,-1.10
2022-12-15T00:46:28.991Z,-1.10
2022-12-15T00:48:56.177Z,-1.10
2022-12-15T00:51:42.322Z,-0.90
2022-12-15T00:54:28.148Z,-1.10
2022-12-15T00:57:13.385Z,-1.20
2022-12-15T00:59:58.844Z,-1.40
2022-12-15T01:02:44.613Z,-1.40
2022-12-15T01:05:29.964Z,-1.10
2022-12-15T01:08:18.243Z,-1.20
2022-12-15T01:11:03.741Z,-1.30
2022-12-15T01:13:51.409Z,-1.30
2022-12-15T01:16:37.025Z,-1.10
2022-12-15T01:19:22.577Z,-1.10
2022-12-15T01:21:49.783Z,-1.20
2022-12-15T01:24:18.928Z,-1.20
2022-12-15T01:26:45.604Z,-1.00
2022-12-15T01:29:12.620Z,-1.00
2022-12-15T01:31:39.379Z,-1.10
2022-12-15T01:34:06.130Z,-1.20
2022-12-15T01:36:32.869Z,-1.30
2022-12-15T01:38:59.551Z,-1.20
2022-12-15T01:41:26.327Z,-1.00
2022-12-15T01:43:53.067Z,-1.20
2022-12-15T01:46:21.937Z,-1.20
2022-12-15T01:49:08.655Z,-1.10
2022-12-15T01:51:42.426Z,-1.00
2022-12-15T01:54:26.896Z,-1.00
2022-12-15T01:56:58.819Z,-1.40
2022-12-15T01:59:32.782Z,-1.40
2022-12-15T02:01:59.709Z,-1.10
2022-12-15T02:04:26.813Z,-1.00
2022-12-15T02:06:53.592Z,-1.10
2022-12-15T02:09:23.564Z,-0.90
2022-12-15T02:12:08.761Z,-0.90
2022-12-15T02:14:50.442Z,-1.20
2022-12-15T02:17:44.457Z,-1.10
2022-12-15T02:20:40.175Z,-1.10
2022-12-15T02:23:14.985Z,-1.00
2022-12-15T02:26:10.308Z,-1.10
2022-12-15T02:29:00.257Z,-1.10
2022-12-15T02:31:50.187Z,-1.00
2022-12-15T02:34:41.421Z,-1.10
2022-12-15T02:37:22.635Z,-1.20
2022-12-15T02:39:49.374Z,-1.40
2022-12-15T02:42:16.328Z,-1.40
2022-12-15T02:44:49.586Z,-1.10
2022-12-15T02:47:39.148Z,-1.10
2022-12-15T02:50:18.966Z,-1.10
2022-12-15T02:53:14.732Z,-1.00
2022-12-15T02:56:08.692Z,-1.10
2022-12-15T02:58:54.267Z,-0.90
2022-12-15T03:01:33.662Z,-1.10
2022-12-15T03:04:02.797Z,-1.30
2022-12-15T03:06:29.531Z,-1.20
2022-12-15T03:08:56.186Z,-1.30
2022-12-15T03:11:23.083Z,-1.50
2022-12-15T03:13:50.436Z,-1.50
2022-12-15T03:16:17.171Z,-1.50
2022-12-15T03:18:43.876Z,-1.60
2022-12-15T03:21:10.689Z,-1.40
2022-12-15T03:23:37.350Z,-1.30
2022-12-15T03:26:04.704Z,-1.30
2022-12-15T03:28:31.338Z,-1.10
2022-12-15T03:30:57.981Z,-1.00
2022-12-15T03:33:24.669Z,-0.90
2022-12-15T03:35:51.375Z,-0.90
2022-12-15T03:38:18.898Z,-1.00
2022-12-15T03:40:45.562Z,-1.20
2022-12-15T03:43:12.288Z,-1.50
2022-12-15T03:45:39.005Z,-1.30
2022-12-15T03:48:05.825Z,-1.10
2022-12-15T03:50:32.510Z,-1.20
2022-12-15T03:53:01.888Z,-1.20
2022-12-15T03:55:29.208Z,-1.40
2022-12-15T03:57:56.432Z,-1.50
2022-12-15T04:00:24.628Z,-1.40
2022-12-15T04:02:51.852Z,-1.40
2022-12-15T04:05:28.032Z,-1.40
2022-12-15T04:07:56.319Z,-1.30
2022-12-15T04:10:27.406Z,-1.50
2022-12-15T04:13:06.741Z,-1.60
2022-12-15T04:15:34.075Z,-1.60
2022-12-15T04:18:06.227Z,-1.60
2022-12-15T04:20:33.365Z,-1.50
2022-12-15T04:23:00.338Z,-1.30
2022-12-15T04:25:46.464Z,-1.40
2022-12-15T04:28:32.215Z,-1.40
2022-12-15T04:31:29.893Z,-1.40
2022-12-15T04:34:19.704Z,-1.20
2022-12-15T04:37:07.682Z,-1.10
2022-12-15T04:39:54.970Z,-1.10
2022-12-15T04:42:40.242Z,-1.00
2022-12-15T04:45:27.323Z,-1.00
2022-12-15T04:48:12.619Z,-0.90
2022-12-15T04:50:58.029Z,-1.00
2022-12-15T04:53:43.604Z,-1.10
2022-12-15T04:56:30.991Z,-1.30
2022-12-15T04:59:16.368Z,-1.10
2022-12-15T05:02:01.671Z,-1.30
2022-12-15T05:04:47.625Z,-1.60
2022-12-15T05:07:33.706Z,-1.70
2022-12-15T05:10:19.267Z,-1.70
2022-12-15T05:13:04.765Z,-1.60
2022-12-15T05:15:52.184Z,-1.50
2022-12-15T05:18:37.788Z,-1.50
2022-12-15T05:21:23.375Z,-1.40
2022-12-15T05:24:08.518Z,-1.10
2022-12-15T05:26:53.875Z,-1.10
2022-12-15T05:29:40.401Z,-1.00
2022-12-15T05:32:08.238Z,-1.10
2022-12-15T05:34:36.355Z,-1.10
2022-12-15T05:37:04.919Z,-1.20
2022-12-15T05:39:32.046Z,-1.20
2022-12-15T05:41:58.763Z,-1.20
2022-12-15T05:44:26.146Z,-1.10
2022-12-15T05:46:53.516Z,-1.10
2022-12-15T05:49:20.972Z,-1.40
2022-12-15T05:51:48.010Z,-1.60
2022-12-15T05:54:17.815Z,-1.70
2022-12-15T05:56:45.577Z,-1.70
2022-12-15T05:59:12.772Z,-1.30
2022-12-15T06:01:39.995Z,-1.30
2022-12-15T06:04:07.447Z,-1.30
2022-12-15T06:06:34.117Z,-1.20
2022-12-15T06:09:00.885Z,-1.30
2022-12-15T06:11:27.710Z,-1.30
2022-12-15T06:13:55.775Z,-1.20
2022-12-15T06:16:25.376Z,-1.30
2022-12-15T06:18:58.502Z,-1.30
2022-12-15T06:21:37.451Z,-1.50
2022-12-15T06:24:05.364Z,-1.40
2022-12-15T06:26:38.002Z,-1.30
2022-12-15T06:29:08.603Z,-1.30
2022-12-15T06:31:36.465Z,-1.50
2022-12-15T06:34:05.349Z,-1.30
2022-12-15T06:36:32.072Z,-1.10
2022-12-15T06:39:00.654Z,-1.30
2022-12-15T06:41:30.159Z,-1.20
2022-12-15T06:43:57.091Z,-1.10
2022-12-15T06:46:25.963Z,-1.30
2022-12-15T06:48:53.104Z,-1.40
2022-12-15T06:51:20.473Z,-1.50
2022-12-15T06:53:53.582Z,-1.30
2022-12-15T06:56:28.916Z,-1.40
2022-12-15T06:58:59.629Z,-1.30
2022-12-15T07:01:27.188Z,-1.40
2022-12-15T07:03:55.293Z,-1.30
2022-12-15T07:06:22.701Z,-1.10
2022-12-15T07:08:54.205Z,-1.00
2022-12-15T07:11:22.003Z,-1.30
2022-12-15T07:13:50.689Z,-1.40
2022-12-15T07:16:17.881Z,-1.20
2022-12-15T07:18:44.673Z,-1.20
2022-12-15T07:21:11.399Z,-1.10
2022-12-15T07:23:55.939Z,-1.10
2022-12-15T07:26:24.324Z,-1.30
2022-12-15T07:28:51.191Z,-1.40
2022-12-15T07:31:18.201Z,-1.40
2022-12-15T07:33:44.955Z,-1.40
2022-12-15T07:36:12.025Z,-1.50
2022-12-15T07:38:38.712Z,-1.60
2022-12-15T07:41:07.054Z,-1.30
2022-12-15T07:43:35.051Z,-1.10
2022-12-15T07:46:02.431Z,-1.10
2022-12-15T07:48:29.351Z,-1.10
2022-12-15T07:51:07.409Z,-1.30
2022-12-15T07:53:36.386Z,-1.40
2022-12-15T07:56:08.129Z,-1.20
2022-12-15T07:58:36.310Z,-1.20
2022-12-15T08:01:05.674Z,-1.30
2022-12-15T08:03:33.038Z,-1.30
2022-12-15T08:06:07.479Z,-1.30
2022-12-15T08:08:35.362Z,-1.20
2022-12-15T08:11:07.190Z,-1.20
2022-12-15T08:16:21.755Z,-1.30
2022-12-15T08:18:48.800Z,-1.20
2022-12-15T08:21:15.987Z,-1.20
2022-12-15T08:23:42.656Z,-1.30
2022-12-15T08:26:12.145Z,-1.30
2022-12-15T08:28:40.440Z,-1.10
2022-12-15T08:31:09.958Z,-1.20
2022-12-15T08:33:37.685Z,-1.30
2022-12-15T08:36:07.840Z,-1.40
2022-12-15T08:38:36.304Z,-1.30
2022-12-15T08:41:10.236Z,-1.00
2022-12-15T08:43:41.283Z,-0.90
2022-12-15T08:46:12.940Z,-1.20
2022-12-15T08:48:39.716Z,-1.20
2022-12-15T08:51:06.799Z,-1.20
2022-12-15T08:53:33.730Z,-1.20
2022-12-15T08:56:05.968Z,-1.20
2022-12-15T08:58:33.502Z,-1.20
2022-12-15T09:01:06.139Z,-1.20
2022-12-15T09:03:34.879Z,-1.30
2022-12-15T09:06:03.884Z,-1.30
2022-12-15T09:08:31.094Z,-1.30
2022-12-15T09:10:58.799Z,-1.30
2022-12-15T09:13:26.048Z,-1.30
2022-12-15T09:16:09.355Z,-1.20
2022-12-15T09:18:36.873Z,-1.30
2022-12-15T09:21:05.554Z,-1.40
2022-12-15T09:23:33.781Z,-1.50
2022-12-15T09:26:01.959Z,-1.50
2022-12-15T09:28:29.685Z,-1.40
2022-12-15T09:31:23.027Z,-1.40
2022-12-15T09:33:52.614Z,-1.50
2022-12-15T09:36:19.816Z,-1.20
2022-12-15T09:38:47.142Z,-1.00
2022-12-15T09:41:13.821Z,-1.00
2022-12-15T09:43:58.480Z,-0.90
2022-12-15T09:46:41.913Z,-0.80
2022-12-15T09:49:35.766Z,-0.80
2022-12-15T09:52:22.686Z,-0.60
2022-12-15T09:54:49.602Z,-0.30
2022-12-15T09:57:42.833Z,-0.20
2022-12-15T10:00:25.362Z,-0.20
2022-12-15T10:03:30.882Z,-0.10
2022-12-15T10:06:21.218Z,0.00
2022-12-15T10:08:50.650Z,0.30
2022-12-15T10:11:35.744Z,0.50
2022-12-15T10:14:30.740Z,3.70
2022-12-15T10:17:23.964Z,7.60
2022-12-15T10:20:14.425Z,10.90
2022-12-15T10:22:42.090Z,13.10
2022-12-15T10:25:29.374Z,14.20
2022-12-15T10:28:21.471Z,16.10
2022-12-15T10:31:02.179Z,17.70
2022-12-15T10:33:34.807Z,19.00
2022-12-15T10:36:02.271Z,19.20
2022-12-15T10:38:37.779Z,19.10
2022-12-15T10:41:08.409Z,19.50
2022-12-15T10:43:38.145Z,19.40
2022-12-15T10:46:18.846Z,19.70
2022-12-15T10:49:07.306Z,20.20
2022-12-15T10:51:43.893Z,18.70
2022-12-15T10:54:14.002Z,19.00
2022-12-15T10:56:58.715Z,18.40
2022-12-15T10:59:28.932Z,16.10
2022-12-15T11:01:55.750Z,13.50
2022-12-15T11:04:31.417Z,11.20
2022-12-15T11:07:00.080Z,9.40
2022-12-15T11:09:29.887Z,8.30
2022-12-15T11:12:15.054Z,7.40
2022-12-15T11:14:51.133Z,6.60
2022-12-15T11:17:21.673Z,5.90
2022-12-15T11:20:05.926Z,5.60
2022-12-15T11:22:52.923Z,5.30
2022-12-15T11:25:32.153Z,4.80
2022-12-15T11:28:02.389Z,4.30
2022-12-15T11:30:34.215Z,4.00
2022-12-15T11:33:02.063Z,3.80
2022-12-15T11:35:51.074Z,3.70
2022-12-15T11:38:34.588Z,3.40
2022-12-15T11:41:30.999Z,3.40
2022-12-15T11:44:12.415Z,3.40
2022-12-15T11:47:02.238Z,3.40
2022-12-15T11:49:52.787Z,3.20
2022-12-15T11:52:40.530Z,2.90
2022-12-15T11:55:18.085Z,3.00
2022-12-15T11:58:10.057Z,3.30
2022-12-15T12:00:43.756Z,3.30
2022-12-15T12:03:28.418Z,3.20
2022-12-15T12:06:16.719Z,2.90
2022-12-15T12:09:27.809Z,2.60
2022-12-15T12:12:03.243Z,2.50
2022-12-15T12:15:06.555Z,2.50
2022-12-15T12:17:42.052Z,2.30
2022-12-15T12:20:44.285Z,2.20
2022-12-15T12:23:22.127Z,1.90
2022-12-15T12:26:28.850Z,1.80
2022-12-15T12:29:20.115Z,1.60
2022-12-15T12:32:24.818Z,1.70
2022-12-15T12:35:31.211Z,1.70
2022-12-15T12:38:05.730Z,1.50
2022-12-15T12:40:41.325Z,1.40
2022-12-15T12:43:16.353Z,1.20
2022-12-15T12:45:57.006Z,1.20
2022-12-15T12:48:33.633Z,1.10
2022-12-15T12:51:37.518Z,1.20
2022-12-15T12:54:29.633Z,1.10
2022-12-15T12:56:56.345Z,1.10
2022-12-15T12:59:29.081Z,1.10
2022-12-15T13:01:57.429Z,1.20
2022-12-15T13:04:30.223Z,1.20
2022-12-15T13:07:06.794Z,1.20
2022-12-15T13:09:44.137Z,1.00
2022-12-15T13:12:53.318Z,1.20
2022-12-15T13:15:37.815Z,1.10
2022-12-15T13:18:15.686Z,1.20
2022-12-15T13:20:44.507Z,1.20
2022-12-15T13:23:36.969Z,1.20
2022-12-15T13:26:04.527Z,1.20
2022-12-15T13:28:40.990Z,1.10
2022-12-15T13:31:24.033Z,1.00
2022-12-15T13:33:54.630Z,1.00
2022-12-15T13:36:39.600Z,0.90
2022-12-15T13:39:17.308Z,0.80
2022-12-15T13:42:23.843Z,0.60
2022-12-15T13:44:39.743Z,0.60
2022-12-15T13:47:18.461Z,0.60
2022-12-15T13:50:06.643Z,0.70
2022-12-15T13:55:37.251Z,0.60
2022-12-15T13:58:13.492Z,0.50
2022-12-15T14:00:52.329Z,0.40
2022-12-15T14:03:23.649Z,0.40
2022-12-15T14:05:56.248Z,0.40
2022-12-15T14:08:25.126Z,0.40
2022-12-15T14:10:54.373Z,0.40
2022-12-15T14:13:24.813Z,0.30
2022-12-15T14:15:58.062Z,0.20
2022-12-15T14:18:27.928Z,0.30
2022-12-15T14:20:55.087Z,0.20
2022-12-15T14:23:30.956Z,0.10
2022-12-15T14:26:06.869Z,0.00
2022-12-15T14:28:36.652Z,0.20
2022-12-15T14:31:16.469Z,0.10
2022-12-15T14:33:46.012Z,0.10
2022-12-15T14:36:23.696Z,0.00
2022-12-15T14:38:58.368Z,0.10
2022-12-15T14:41:32.692Z,0.10
2022-12-15T14:44:36.529Z,0.00
2022-12-15T14:47:06.850Z,0.00
2022-12-15T14:49:45.251Z,0.00
2022-12-15T14:52:36.642Z,-0.10
2022-12-15T14:55:38.896Z,-0.30
2022-12-15T14:58:27.677Z,-0.10
2022-12-15T15:00:55.807Z,-0.20
2022-12-15T15:03:38.105Z,-0.20
2022-12-15T15:06:11.120Z,-0.40
2022-12-15T15:08:51.415Z,-0.70
2022-12-15T15:11:30.030Z,-0.90
2022-12-15T15:13:59.757Z,-0.90
2022-12-15T15:16:27.102Z,-0.90
2022-12-15T15:18:55.811Z,-1.00
2022-12-15T15:21:25.025Z,-0.90
2022-12-15T15:23:59.263Z,-0.80
2022-12-15T15:26:27.535Z,-0.90
2022-12-15T15:28:54.819Z,-0.90
2022-12-15T15:31:40.773Z,-0.70
2022-12-15T15:34:08.787Z,-0.80
2022-12-15T15:36:37.787Z,-0.70
2022-12-15T15:39:13.089Z,-0.90
2022-12-15T15:41:39.979Z,-0.90
2022-12-15T15:44:14.112Z,-1.30
2022-12-15T15:46:51.485Z,-1.40
2022-12-15T15:49:21.630Z,-1.20
2022-12-15T15:51:48.960Z,-1.20
2022-12-15T15:54:21.050Z,-1.20
2022-12-15T15:56:47.689Z,-1.10
2022-12-15T15:59:21.586Z,-1.10
2022-12-15T16:01:59.632Z,-1.30
2022-12-15T16:04:26.795Z,-1.40
2022-12-15T16:06:54.931Z,-1.30
2022-12-15T16:09:27.349Z,-1.20
2022-12-15T16:11:54.960Z,-1.30
2022-12-15T16:14:24.857Z,-1.20
2022-12-15T16:16:56.134Z,-1.20
2022-12-15T16:19:23.839Z,-1.20
2022-12-15T16:21:51.961Z,-1.40
2022-12-15T16:24:19.606Z,-1.50
2022-12-15T16:26:50.920Z,-1.50
2022-12-15T16:29:20.274Z,-1.80
2022-12-15T16:31:47.526Z,-1.60
2022-12-15T16:34:21.619Z,-1.70
2022-12-15T16:36:48.333Z,-1.70
2022-12-15T16:39:32.094Z,-1.40
2022-12-15T16:41:59.246Z,-1.40
2022-12-15T16:44:38.290Z,-1.30
2022-12-15T16:47:05.146Z,-1.40
2022-12-15T16:49:39.610Z,-1.60
2022-12-15T16:52:20.328Z,-1.60
2022-12-15T16:54:50.004Z,-1.50
2022-12-15T16:57:18.978Z,-1.40
2022-12-15T16:59:49.736Z,-1.50
2022-12-15T17:02:31.644Z,-1.50
2022-12-15T17:04:58.560Z,-1.70
2022-12-15T17:07:27.798Z,-1.70
2022-12-15T17:09:55.690Z,-1.50
2022-12-15T17:12:25.230Z,-1.30
2022-12-15T17:14:57.601Z,-1.20
2022-12-15T17:17:25.472Z,-1.20
2022-12-15T17:20:27.419Z,-1.20
2022-12-15T17:22:43.684Z,-1.50
2022-12-15T17:25:17.409Z,-1.50
2022-12-15T17:27:44.807Z,-1.50
2022-12-15T17:30:15.121Z,-1.30
2022-12-15T17:32:43.283Z,-1.30
2022-12-15T17:35:12.080Z,-1.30
2022-12-15T17:37:40.143Z,-1.40
2022-12-15T17:40:27.253Z,-1.50
2022-12-15T17:42:53.970Z,-1.60
2022-12-15T17:45:23.719Z,-1.50
2022-12-15T17:47:52.067Z,-1.30
2022-12-15T17:50:19.203Z,-1.50
2022-12-15T17:52:51.140Z,-1.50
2022-12-15T17:55:21.430Z,-1.50
2022-12-15T17:57:48.436Z,-1.30
2022-12-15T18:00:43.246Z,-1.20
2022-12-15T18:03:15.401Z,-1.10
2022-12-15T18:05:42.402Z,-1.30
2022-12-15T18:08:20.923Z,-1.30
2022-12-15T18:10:50.490Z,-1.50
2022-12-15T18:13:27.916Z,-1.60
2022-12-15T18:15:57.121Z,-1.50
2022-12-15T18:18:24.777Z,-1.50
2022-12-15T18:20:55.604Z,-1.60
2022-12-15T18:23:24.470Z,-1.50
2022-12-15T18:25:51.536Z,-1.50
2022-12-15T18:28:27.663Z,-1.40
2022-12-15T18:30:56.552Z,-1.40
2022-12-15T18:33:23.588Z,-1.30
2022-12-15T18:35:51.699Z,-1.40
2022-12-15T18:38:22.274Z,-1.50
2022-12-15T18:40:53.164Z,-1.40
2022-12-15T18:43:22.052Z,-1.30
2022-12-15T18:45:50.248Z,-1.50
2022-12-15T18:48:27.094Z,-1.60
2022-12-15T18:50:56.286Z,-1.60
2022-12-15T18:53:30.560Z,-1.80
2022-12-15T18:56:01.399Z,-2.00
2022-12-15T18:58:30.088Z,-1.90
2022-12-15T19:00:59.461Z,-1.60
2022-12-15T19:03:27.354Z,-1.80
2022-12-15T19:05:59.225Z,-1.60
2022-12-15T19:08:28.326Z,-1.50
2022-12-15T19:10:58.271Z,-1.50
2022-12-15T19:13:29.640Z,-1.50
2022-12-15T19:15:58.576Z,-1.40
2022-12-15T19:18:44.842Z,-1.70
2022-12-15T19:21:43.181Z,-1.60
2022-12-15T19:24:51.511Z,-1.70
2022-12-15T19:27:22.987Z,-1.70
2022-12-15T19:29:50.961Z,-1.70
2022-12-15T19:32:17.883Z,-1.70
2022-12-15T19:34:44.985Z,-1.60
2022-12-15T19:37:23.803Z,-1.60
2022-12-15T19:39:54.170Z,-1.80
2022-12-15T19:42:28.248Z,-1.70
2022-12-15T19:44:54.957Z,-1.60
2022-12-15T19:47:21.944Z,-1.60
2022-12-15T19:49:48.832Z,-1.70
2022-12-15T19:52:17.146Z,-1.50
2022-12-15T19:54:46.767Z,-1.70
2022-12-15T19:57:18.181Z,-1.80
2022-12-15T19:59:45.255Z,-2.00
2022-12-15T20:02:20.807Z,-1.80
2022-12-15T20:04:48.640Z,-1.70
2022-12-15T20:07:27.175Z,-1.60
2022-12-15T20:09:55.910Z,-1.70
2022-12-15T20:12:25.319Z,-1.80
2022-12-15T20:14:52.301Z,-1.80
2022-12-15T20:17:25.021Z,-1.80
2022-12-15T20:19:52.283Z,-1.80
2022-12-15T20:22:26.202Z,-1.50
2022-12-15T20:24:58.909Z,-1.60
2022-12-15T20:27:28.469Z,-1.50
2022-12-15T20:29:58.544Z,-1.40
2022-12-15T20:32:32.662Z,-1.50
2022-12-15T20:35:03.468Z,-1.50
2022-12-15T20:37:31.434Z,-1.70
2022-12-15T20:39:59.161Z,-1.50
2022-12-15T20:42:27.758Z,-1.50
2022-12-15T20:44:54.630Z,-1.40
2022-12-15T20:47:23.906Z,-1.50
2022-12-15T20:49:54.240Z,-1.40
2022-12-15T20:52:27.639Z,-1.40
2022-12-15T20:54:58.303Z,-1.40
2022-12-15T20:57:28.596Z,-1.30
2022-12-15T20:59:56.097Z,-1.30
2022-12-15T21:02:28.703Z,-1.50
2022-12-15T21:04:55.909Z,-1.50
2022-12-15T21:07:22.762Z,-1.40
2022-12-15T21:09:57.077Z,-1.50
2022-12-15T21:12:27.925Z,-1.50
2022-12-15T21:14:55.257Z,-1.30
2022-12-15T21:17:24.072Z,-1.00
2022-12-15T21:19:54.841Z,-1.10
2022-12-15T21:22:27.104Z,-1.00
2022-12-15T21:25:01.595Z,-0.80
2022-12-15T21:27:31.650Z,-0.90
2022-12-15T21:29:58.871Z,-1.00
2022-12-15T21:32:26.745Z,-1.00
2022-12-15T21:34:56.757Z,-1.20
2022-12-15T21:37:34.811Z,-1.20
2022-12-15T21:40:08.695Z,-1.10
2022-12-15T21:42:37.803Z,-1.00
2022-12-15T21:45:17.806Z,-1.00
2022-12-15T21:48:06.510Z,-1.00
2022-12-15T21:50:33.954Z,-0.80
2022-12-15T21:53:01.921Z,-0.90
2022-12-15T21:55:30.600Z,-1.00
2022-12-15T21:58:01.440Z,-0.80
2022-12-15T22:00:28.322Z,-0.70
2022-12-15T22:02:55.496Z,-0.80
2022-12-15T22:05:29.288Z,-1.00
2022-12-15T22:07:58.001Z,-0.80
2022-12-15T22:10:25.351Z,-1.10
2022-12-15T22:12:59.252Z,-1.00
2022-12-15T22:15:28.106Z,-0.80
2022-12-15T22:17:55.901Z,-1.00
2022-12-15T22:20:24.526Z,-1.30
2022-12-15T22:22:51.457Z,-1.20
2022-12-15T22:25:24.970Z,-1.10
2022-12-15T22:27:52.447Z,-1.20
2022-12-15T22:30:26.424Z,-1.30
2022-12-15T22:32:55.369Z,-1.30
2022-12-15T22:35:25.319Z,-1.20
2022-12-15T22:37:56.093Z,-1.10
2022-12-15T22:40:23.887Z,-1.30
2022-12-15T22:42:54.992Z,-1.50
2022-12-15T22:45:23.845Z,-1.50
2022-12-15T22:47:52.009Z,-1.20
2022-12-15T22:50:25.562Z,-1.20
2022-12-15T22:52:52.675Z,-1.20
2022-12-15T22:55:24.088Z,-1.20
2022-12-15T22:57:59.333Z,-0.90
2022-12-15T23:00:26.206Z,-0.60
2022-12-15T23:02:53.019Z,-0.50
2022-12-15T23:05:20.403Z,-0.60
2022-12-15T23:07:47.200Z,-0.70
2022-12-15T23:10:34.884Z,-0.90
2022-12-15T23:13:01.612Z,-0.80
2022-12-15T23:15:47.415Z,-0.50
2022-12-15T23:18:14.097Z,-0.50
2022-12-15T23:20:41.612Z,-0.70
2022-12-15T23:23:09.730Z,-0.70
2022-12-15T23:25:36.421Z,-0.50
2022-12-15T23:28:03.336Z,-0.60
2022-12-15T23:30:30.014Z,-0.60
2022-12-15T23:32:56.669Z,-0.40
2022-12-15T23:35:23.475Z,-0.40
2022-12-15T23:37:50.123Z,-0.40
2022-12-15T23:40:21.943Z,-0.50
2022-12-15T23:42:52.177Z,-0.60
2022-12-15T23:45:19.235Z,-0.70
2022-12-15T23:47:45.944Z,-0.80
2022-12-15T23:50:12.957Z,-0.70
2022-12-15T23:52:39.623Z,-0.80
2022-12-15T23:55:10.064Z,-0.50
2022-12-15T23:57:38.557Z,-0.50
